createdAt,value
2019-01-21T00:01:20.190Z,99.90
2019-01-21T00:03:46.411Z,99.90
2019-01-21T00:06:12.819Z,99.90
2019-01-21T00:08:39.067Z,99.90
2019-01-21T00:11:05.270Z,99.90
2019-01-21T00:13:31.860Z,99.90
2019-01-21T00:15:58.057Z,99.90
2019-01-21T00:18:24.268Z,99.90
2019-01-21T00:20:50.481Z,99.90
2019-01-21T00:23:16.781Z,99.90
2019-01-21T00:25:43.182Z,99.90
2019-01-21T00:28:09.390Z,99.90
2019-01-21T00:30:35.615Z,99.90
2019-01-21T00:33:01.810Z,99.90
2019-01-21T00:35:28.054Z,99.90
2019-01-21T00:37:54.278Z,99.90
2019-01-21T00:40:20.511Z,99.90
2019-01-21T00:42:46.730Z,99.90
2019-01-21T00:45:13.242Z,99.90
2019-01-21T00:47:39.470Z,99.90
2019-01-21T00:50:11.602Z,99.90
2019-01-21T00:52:37.923Z,99.90
2019-01-21T00:55:06.830Z,99.90
2019-01-21T00:57:33.149Z,99.90
2019-01-21T00:59:59.358Z,99.90
2019-01-21T01:02:25.680Z,99.90
2019-01-21T01:04:51.986Z,99.90
2019-01-21T01:07:18.310Z,99.90
2019-01-21T01:09:44.596Z,99.90
2019-01-21T01:12:10.862Z,99.90
2019-01-21T01:14:37.086Z,99.90
2019-01-21T01:17:03.386Z,99.90
2019-01-21T01:19:34.617Z,99.90
2019-01-21T01:22:00.917Z,99.90
2019-01-21T01:24:27.143Z,99.90
2019-01-21T01:26:53.342Z,99.90
2019-01-21T01:29:20.681Z,99.90
2019-01-21T01:31:46.970Z,99.90
2019-01-21T01:34:13.198Z,99.90
2019-01-21T01:36:48.319Z,99.90
2019-01-21T01:39:14.535Z,99.90
2019-01-21T01:41:40.907Z,99.90
2019-01-21T01:44:07.198Z,99.90
2019-01-21T01:46:33.418Z,99.90
2019-01-21T01:48:59.877Z,99.90
2019-01-21T01:51:26.280Z,99.90
2019-01-21T01:53:53.770Z,99.90
2019-01-21T01:56:19.999Z,99.90
2019-01-21T01:58:46.207Z,99.90
2019-01-21T02:01:12.434Z,99.90
2019-01-21T02:03:39.138Z,99.90
2019-01-21T02:06:05.450Z,99.90
2019-01-21T02:08:31.669Z,99.90
2019-01-21T02:10:57.906Z,99.90
2019-01-21T02:13:24.121Z,99.90
2019-01-21T02:15:50.323Z,99.90
2019-01-21T02:18:16.534Z,99.90
2019-01-21T02:20:44.242Z,99.90
2019-01-21T02:23:14.270Z,99.90
2019-01-21T02:25:47.281Z,99.90
2019-01-21T02:28:34.750Z,99.90
2019-01-21T02:31:17.072Z,99.90
2019-01-21T02:34:07.154Z,99.90
2019-01-21T02:36:37.468Z,99.90
2019-01-21T02:39:42.874Z,99.90
2019-01-21T02:42:28.214Z,99.90
2019-01-21T02:45:16.192Z,99.90
2019-01-21T02:47:49.375Z,99.90
2019-01-21T02:50:28.420Z,99.90
2019-01-21T02:53:15.332Z,99.90
2019-01-21T02:56:17.369Z,99.90
2019-01-21T02:59:02.349Z,99.90
2019-01-21T03:01:44.728Z,99.90
2019-01-21T03:04:29.486Z,99.90
2019-01-21T03:07:25.198Z,99.90
2019-01-21T03:10:23.319Z,99.90
2019-01-21T03:13:05.331Z,99.90
2019-01-21T03:15:58.254Z,99.90
2019-01-21T03:18:48.717Z,99.90
2019-01-21T03:21:41.793Z,99.90
2019-01-21T03:24:17.538Z,99.90
2019-01-21T03:26:47.910Z,99.90
2019-01-21T03:29:44.070Z,99.90
2019-01-21T03:32:26.240Z,99.90
2019-01-21T03:35:05.139Z,99.90
2019-01-21T03:37:46.816Z,99.90
2019-01-21T03:40:50.929Z,99.90
2019-01-21T03:43:27.270Z,99.90
2019-01-21T03:46:02.803Z,99.90
2019-01-21T03:48:32.098Z,99.90
2019-01-21T03:51:22.393Z,99.90
2019-01-21T03:53:52.496Z,99.90
2019-01-21T03:56:22.525Z,99.90
2019-01-21T03:59:01.659Z,99.90
2019-01-21T04:01:53.502Z,99.90
2019-01-21T04:04:32.663Z,99.90
2019-01-21T04:07:02.691Z,99.90
2019-01-21T04:09:32.704Z,99.90
2019-01-21T04:12:22.293Z,99.90
2019-01-21T04:15:10.319Z,99.90
2019-01-21T04:17:51.963Z,99.90
2019-01-21T04:20:37.172Z,99.90
2019-01-21T04:23:24.242Z,99.90
2019-01-21T04:26:17.290Z,99.90
2019-01-21T04:28:47.818Z,99.90
2019-01-21T04:31:27.008Z,99.90
2019-01-21T04:34:02.967Z,99.90
2019-01-21T04:36:35.848Z,99.90
2019-01-21T04:39:14.997Z,99.90
2019-01-21T04:42:00.167Z,99.90
2019-01-21T04:44:36.237Z,99.90
2019-01-21T04:47:27.428Z,99.90
2019-01-21T04:50:06.050Z,99.90
2019-01-21T04:52:55.958Z,99.90
2019-01-21T04:55:42.926Z,99.90
2019-01-21T04:58:28.682Z,99.90
2019-01-21T05:01:04.796Z,99.90
2019-01-21T05:03:40.795Z,99.90
2019-01-21T05:06:20.331Z,99.90
2019-01-21T05:09:08.311Z,99.90
2019-01-21T05:11:53.374Z,99.90
2019-01-21T05:14:38.702Z,99.90
2019-01-21T05:17:51.591Z,99.90
2019-01-21T05:20:44.304Z,99.90
2019-01-21T05:23:17.618Z,99.90
2019-01-21T05:26:11.743Z,99.90
2019-01-21T05:29:04.106Z,99.90
2019-01-21T05:31:54.846Z,99.90
2019-01-21T05:34:37.187Z,99.90
2019-01-21T05:37:07.223Z,99.90
2019-01-21T05:39:43.375Z,99.90
2019-01-21T05:42:22.292Z,99.90
2019-01-21T05:45:04.743Z,99.90
2019-01-21T05:47:46.736Z,99.90
2019-01-21T05:50:19.779Z,99.90
2019-01-21T05:52:49.850Z,99.90
2019-01-21T05:55:35.247Z,99.90
2019-01-21T05:58:28.467Z,99.90
2019-01-21T06:01:07.857Z,99.90
2019-01-21T06:03:47.257Z,99.90
2019-01-21T06:06:17.270Z,99.90
2019-01-21T06:08:53.330Z,99.90
2019-01-21T06:11:29.369Z,99.90
2019-01-21T06:14:13.758Z,99.90
2019-01-21T06:17:05.021Z,99.90
2019-01-21T06:19:37.907Z,99.90
2019-01-21T06:22:10.858Z,99.90
2019-01-21T06:24:49.427Z,99.90
2019-01-21T06:27:22.181Z,99.90
2019-01-21T06:30:07.154Z,99.90
2019-01-21T06:32:37.167Z,99.90
2019-01-21T06:35:09.933Z,99.90
2019-01-21T06:37:52.042Z,99.90
2019-01-21T06:40:38.710Z,99.90
2019-01-21T06:43:31.638Z,99.90
2019-01-21T06:46:07.222Z,99.90
2019-01-21T06:48:46.593Z,99.90
2019-01-21T06:51:36.746Z,99.90
2019-01-21T06:54:32.423Z,99.90
2019-01-21T06:57:28.376Z,99.90
2019-01-21T07:00:32.182Z,99.90
2019-01-21T07:03:20.776Z,99.90
2019-01-21T07:06:05.346Z,99.90
2019-01-21T07:08:56.228Z,99.90
2019-01-21T07:11:44.208Z,99.90
2019-01-21T07:14:23.315Z,99.90
2019-01-21T07:16:56.303Z,99.90
2019-01-21T07:19:31.814Z,99.90
2019-01-21T07:22:27.742Z,99.90
2019-01-21T07:25:14.518Z,99.90
2019-01-21T07:27:59.674Z,99.90
2019-01-21T07:30:47.959Z,99.90
2019-01-21T07:33:37.060Z,99.90
2019-01-21T07:36:15.602Z,99.90
2019-01-21T07:38:45.610Z,99.90
2019-01-21T07:41:24.168Z,99.90
2019-01-21T07:44:20.358Z,99.90
2019-01-21T07:47:17.870Z,99.90
2019-01-21T07:49:50.867Z,99.90
2019-01-21T07:52:38.991Z,99.90
2019-01-21T07:55:12.001Z,99.90
2019-01-21T07:57:47.475Z,99.90
2019-01-21T08:00:34.451Z,99.90
2019-01-21T08:03:31.428Z,99.90
2019-01-21T08:06:16.262Z,99.90
2019-01-21T08:08:55.290Z,99.90
2019-01-21T08:11:31.379Z,99.90
2019-01-21T08:14:04.238Z,99.90
2019-01-21T08:16:49.384Z,99.90
2019-01-21T08:19:24.458Z,99.90
2019-01-21T08:22:03.390Z,99.90
2019-01-21T08:24:51.551Z,99.90
2019-01-21T08:27:42.477Z,99.90
2019-01-21T08:30:24.761Z,99.90
2019-01-21T08:33:06.338Z,99.90
2019-01-21T08:35:39.172Z,99.90
2019-01-21T08:38:27.438Z,99.90
2019-01-21T08:40:57.450Z,99.90
2019-01-21T08:43:27.491Z,99.90
2019-01-21T08:46:14.199Z,99.90
2019-01-21T08:48:58.950Z,99.90
2019-01-21T08:51:45.702Z,99.90
2019-01-21T08:54:18.473Z,99.90
2019-01-21T08:57:06.663Z,99.90
2019-01-21T08:59:42.730Z,99.90
2019-01-21T09:02:41.873Z,99.90
2019-01-21T09:05:17.643Z,99.90
2019-01-21T09:08:06.182Z,99.90
2019-01-21T09:11:09.907Z,99.90
2019-01-21T09:14:11.927Z,99.90
2019-01-21T09:16:41.954Z,99.90
2019-01-21T09:19:20.762Z,99.90
2019-01-21T09:21:53.807Z,99.90
2019-01-21T09:24:59.245Z,99.90
2019-01-21T09:27:44.330Z,99.90
2019-01-21T09:30:20.187Z,99.90
2019-01-21T09:32:59.346Z,99.90
2019-01-21T09:36:04.051Z,99.90
2019-01-21T09:38:47.265Z,99.90
2019-01-21T09:41:26.626Z,99.90
2019-01-21T09:44:02.699Z,99.90
2019-01-21T09:46:44.570Z,99.90
2019-01-21T09:49:10.587Z,99.90
2019-01-21T09:51:39.311Z,99.90
2019-01-21T09:54:06.423Z,99.90
2019-01-21T09:56:32.820Z,99.90
2019-01-21T09:58:59.138Z,99.90
2019-01-21T10:01:25.659Z,99.90
2019-01-21T10:03:52.382Z,99.90
2019-01-21T10:06:21.067Z,99.90
2019-01-21T10:09:09.144Z,99.90
2019-01-21T10:12:08.330Z,99.90
2019-01-21T10:14:59.354Z,99.90
2019-01-21T10:17:49.254Z,99.90
2019-01-21T10:20:36.174Z,99.90
2019-01-21T10:23:12.035Z,99.90
2019-01-21T10:25:42.042Z,99.90
2019-01-21T10:28:36.087Z,99.90
2019-01-21T10:31:09.382Z,99.90
2019-01-21T10:33:57.791Z,99.90
2019-01-21T10:36:49.218Z,99.90
2019-01-21T10:39:34.590Z,99.90
2019-01-21T10:42:13.671Z,99.90
2019-01-21T10:45:08.698Z,99.90
2019-01-21T10:48:15.565Z,99.90
2019-01-21T10:50:57.223Z,99.90
2019-01-21T10:53:36.273Z,99.90
2019-01-21T10:56:24.660Z,99.90
2019-01-21T10:59:11.311Z,99.90
2019-01-21T11:02:13.404Z,99.90
2019-01-21T11:04:43.422Z,99.90
2019-01-21T11:07:16.442Z,99.90
2019-01-21T11:09:46.466Z,99.90
2019-01-21T11:12:28.359Z,99.90
2019-01-21T11:14:58.454Z,99.90
2019-01-21T11:17:37.302Z,99.90
2019-01-21T11:20:37.880Z,99.90
2019-01-21T11:23:14.091Z,99.90
2019-01-21T11:26:19.017Z,99.90
2019-01-21T11:29:05.570Z,99.90
2019-01-21T11:31:38.481Z,99.90
2019-01-21T11:34:17.663Z,99.90
2019-01-21T11:37:16.190Z,99.90
2019-01-21T11:40:07.754Z,99.90
2019-01-21T11:42:37.993Z,99.90
2019-01-21T11:45:30.794Z,99.90
2019-01-21T11:48:16.139Z,99.90
2019-01-21T11:51:07.787Z,99.90
2019-01-21T11:53:56.444Z,99.90
2019-01-21T11:56:32.515Z,99.90
2019-01-21T11:59:14.414Z,99.90
2019-01-21T12:02:04.583Z,99.90
2019-01-21T12:04:46.630Z,99.90
2019-01-21T12:07:25.554Z,99.90
2019-01-21T12:09:58.301Z,99.90
2019-01-21T12:12:31.314Z,99.90
2019-01-21T12:15:10.110Z,99.90
2019-01-21T12:18:07.711Z,99.90
2019-01-21T12:20:37.718Z,99.90
2019-01-21T12:23:10.342Z,99.90
2019-01-21T12:25:43.279Z,99.90
2019-01-21T12:28:35.906Z,99.90
2019-01-21T12:31:11.926Z,99.90
2019-01-21T12:33:48.115Z,99.90
2019-01-21T12:36:21.131Z,99.90
2019-01-21T12:39:07.774Z,99.90
2019-01-21T12:41:43.663Z,99.90
2019-01-21T12:44:19.595Z,99.90
2019-01-21T12:46:52.471Z,99.90
2019-01-21T12:49:28.553Z,99.90
2019-01-21T12:52:19.870Z,99.90
2019-01-21T12:55:01.932Z,99.90
2019-01-21T12:57:44.006Z,99.90
2019-01-21T13:00:26.379Z,99.90
2019-01-21T13:03:13.077Z,99.90
2019-01-21T13:05:55.134Z,99.90
2019-01-21T13:08:37.184Z,99.90
2019-01-21T13:11:07.212Z,99.90
2019-01-21T13:13:49.522Z,99.90
2019-01-21T13:16:28.514Z,99.90
2019-01-21T13:19:13.983Z,99.90
2019-01-21T13:21:47.047Z,99.90
2019-01-21T13:24:25.654Z,99.90
2019-01-21T13:27:13.734Z,99.90
2019-01-21T13:29:43.737Z,99.90
2019-01-21T13:32:13.797Z,99.90
2019-01-21T13:34:49.758Z,99.90
2019-01-21T13:37:42.239Z,99.90
2019-01-21T13:40:27.542Z,99.90
2019-01-21T13:43:15.974Z,99.90
2019-01-21T13:46:03.999Z,99.90
2019-01-21T13:48:39.350Z,99.90
2019-01-21T13:51:33.546Z,99.90
2019-01-21T13:54:08.882Z,99.90
2019-01-21T13:56:47.465Z,99.90
2019-01-21T13:59:23.314Z,99.90
2019-01-21T14:02:07.986Z,99.90
2019-01-21T14:04:41.269Z,99.40
2019-01-21T14:07:34.438Z,97.30
2019-01-21T14:10:10.042Z,97.60
2019-01-21T14:12:58.179Z,96.50
2019-01-21T14:15:28.223Z,97.30
2019-01-21T14:18:37.814Z,95.40
2019-01-21T14:21:19.850Z,98.30
2019-01-21T14:23:55.661Z,98.30
2019-01-21T14:26:34.215Z,97.20
2019-01-21T14:29:10.279Z,94.60
2019-01-21T14:31:40.298Z,96.50
2019-01-21T14:34:10.332Z,98.10
2019-01-21T14:36:43.101Z,97.70
2019-01-21T14:39:19.398Z,98.80
2019-01-21T14:42:04.435Z,98.50
2019-01-21T14:44:46.497Z,99.30
2019-01-21T14:47:19.524Z,99.90
2019-01-21T14:49:58.105Z,99.20
2019-01-21T14:52:40.433Z,97.50
2019-01-21T14:55:28.940Z,99.10
2019-01-21T14:58:19.131Z,98.70
2019-01-21T15:01:06.993Z,98.40
2019-01-21T15:03:48.725Z,98.20
2019-01-21T15:06:27.286Z,97.40
2019-01-21T15:09:03.574Z,92.20
2019-01-21T15:11:33.623Z,87.70
2019-01-21T15:14:06.549Z,77.40
2019-01-21T15:16:39.498Z,70.60
2019-01-21T15:19:15.734Z,61.60
2019-01-21T15:22:01.329Z,60.10
2019-01-21T15:24:57.523Z,59.80
2019-01-21T15:27:34.747Z,65.70
2019-01-21T15:30:17.284Z,77.40
2019-01-21T15:32:56.841Z,94.20
2019-01-21T15:35:39.576Z,96.30
2019-01-21T15:38:24.858Z,96.70
2019-01-21T15:41:11.663Z,99.40
2019-01-21T15:43:41.769Z,99.90
2019-01-21T15:46:32.948Z,99.90
2019-01-21T15:49:05.897Z,99.90
2019-01-21T15:51:58.871Z,99.90
2019-01-21T15:54:34.867Z,99.90
2019-01-21T15:57:10.987Z,99.90
2019-01-21T15:59:43.787Z,99.90
2019-01-21T16:02:13.912Z,99.90
2019-01-21T16:04:59.148Z,99.90
2019-01-21T16:07:41.358Z,99.90
2019-01-21T16:10:17.310Z,99.90
2019-01-21T16:12:56.609Z,99.90
2019-01-21T16:16:02.059Z,99.90
2019-01-21T16:18:32.101Z,99.90
2019-01-21T16:21:16.979Z,99.90
2019-01-21T16:24:07.818Z,99.90
2019-01-21T16:26:40.619Z,99.90
2019-01-21T16:29:16.666Z,99.90
2019-01-21T16:31:47.107Z,99.90
2019-01-21T16:34:45.564Z,99.90
2019-01-21T16:37:32.511Z,99.90
2019-01-21T16:40:17.902Z,99.90
2019-01-21T16:42:44.219Z,99.90
2019-01-21T16:45:10.534Z,99.90
2019-01-21T16:47:36.758Z,99.90
2019-01-21T16:50:06.157Z,99.90
2019-01-21T16:52:32.357Z,99.90
2019-01-21T16:54:58.678Z,99.90
2019-01-21T16:57:25.822Z,99.90
2019-01-21T16:59:52.146Z,99.90
2019-01-21T17:02:18.377Z,99.90
2019-01-21T17:04:44.786Z,99.90
2019-01-21T17:07:11.031Z,99.90
2019-01-21T17:09:37.305Z,99.90
2019-01-21T17:12:03.831Z,99.90
2019-01-21T17:14:30.027Z,99.90
2019-01-21T17:16:56.246Z,99.90
2019-01-21T17:19:22.378Z,99.90
2019-01-21T17:21:49.175Z,99.90
2019-01-21T17:24:15.381Z,99.90
2019-01-21T17:26:41.687Z,99.90
2019-01-21T17:29:07.900Z,99.90
2019-01-21T17:31:34.118Z,99.90
2019-01-21T17:34:00.344Z,99.90
2019-01-21T17:36:26.546Z,99.90
2019-01-21T17:38:52.765Z,99.90
2019-01-21T17:41:19.067Z,99.90
2019-01-21T17:43:45.295Z,99.90
2019-01-21T17:46:11.504Z,99.90
2019-01-21T17:48:37.727Z,99.90
2019-01-21T17:51:03.926Z,99.90
2019-01-21T17:53:30.153Z,99.90
2019-01-21T17:55:56.351Z,99.90
2019-01-21T17:58:22.554Z,99.90
2019-01-21T18:00:48.770Z,99.90
2019-01-21T18:03:15.173Z,99.90
2019-01-21T18:05:42.650Z,99.90
2019-01-21T18:08:08.963Z,99.90
2019-01-21T18:10:35.179Z,99.90
2019-01-21T18:13:24.097Z,99.90
2019-01-21T18:15:54.399Z,99.90
2019-01-21T18:18:20.602Z,99.90
2019-01-21T18:20:46.817Z,99.90
2019-01-21T18:23:13.023Z,99.90
2019-01-21T18:25:39.246Z,99.90
2019-01-21T18:28:05.562Z,99.90
2019-01-21T18:30:31.782Z,99.90
2019-01-21T18:32:57.999Z,99.90
2019-01-21T18:35:24.418Z,99.90
2019-01-21T18:37:50.742Z,99.90
2019-01-21T18:40:19.050Z,99.90
2019-01-21T18:42:45.566Z,99.90
2019-01-21T18:45:15.371Z,99.90
2019-01-21T18:47:41.699Z,99.90
2019-01-21T18:50:09.419Z,99.90
2019-01-21T18:52:35.655Z,99.90
2019-01-21T18:55:02.552Z,99.90
2019-01-21T18:57:28.798Z,99.90
2019-01-21T18:59:55.046Z,99.90
2019-01-21T19:02:21.267Z,99.90
2019-01-21T19:04:47.462Z,99.90
2019-01-21T19:07:13.682Z,99.90
2019-01-21T19:09:39.894Z,99.90
2019-01-21T19:12:06.103Z,99.90
2019-01-21T19:14:32.566Z,99.90
2019-01-21T19:16:58.762Z,99.90
2019-01-21T19:19:24.986Z,99.90
2019-01-21T19:21:56.166Z,99.90
2019-01-21T19:24:22.391Z,99.90
2019-01-21T19:26:48.585Z,99.90
2019-01-21T19:29:14.918Z,99.90
2019-01-21T19:31:41.251Z,99.90
2019-01-21T19:34:07.666Z,99.90
2019-01-21T19:36:34.119Z,99.90
2019-01-21T19:39:00.330Z,99.90
2019-01-21T19:41:26.535Z,99.90
2019-01-21T19:43:52.826Z,99.90
2019-01-21T19:46:19.152Z,99.90
2019-01-21T19:48:45.478Z,99.90
2019-01-21T19:51:11.788Z,99.90
2019-01-21T19:53:37.978Z,99.90
2019-01-21T19:56:04.411Z,99.90
2019-01-21T19:58:30.614Z,99.90
2019-01-21T20:00:56.829Z,99.90
2019-01-21T20:03:23.022Z,99.90
2019-01-21T20:05:49.257Z,99.90
2019-01-21T20:08:15.458Z,99.90
2019-01-21T20:10:41.675Z,99.90
2019-01-21T20:13:07.978Z,99.90
2019-01-21T20:15:34.291Z,99.90
2019-01-21T20:18:00.494Z,99.90
2019-01-21T20:20:30.923Z,99.90
2019-01-21T20:22:57.861Z,99.90
2019-01-21T20:25:29.192Z,99.90
2019-01-21T20:27:55.551Z,99.90
2019-01-21T20:30:22.964Z,99.90
2019-01-21T20:32:49.282Z,99.90
2019-01-21T20:35:15.982Z,99.90
2019-01-21T20:37:42.208Z,99.90
2019-01-21T20:40:26.029Z,99.90
2019-01-21T20:42:52.430Z,99.90
2019-01-21T20:45:18.748Z,99.90
2019-01-21T20:47:44.966Z,99.90
2019-01-21T20:50:14.766Z,99.90
2019-01-21T20:52:41.090Z,99.90
2019-01-21T20:55:08.790Z,99.90
2019-01-21T20:57:35.010Z,99.90
2019-01-21T21:00:01.306Z,99.90
2019-01-21T21:02:27.561Z,99.90
2019-01-21T21:04:53.755Z,99.90
2019-01-21T21:07:19.969Z,99.90
2019-01-21T21:09:46.167Z,99.90
2019-01-21T21:12:12.380Z,99.90
2019-01-21T21:14:38.586Z,99.90
2019-01-21T21:17:04.821Z,99.90
2019-01-21T21:19:31.022Z,99.90
2019-01-21T21:21:57.230Z,99.90
2019-01-21T21:24:23.455Z,99.90
2019-01-21T21:26:49.758Z,99.90
2019-01-21T21:29:16.074Z,99.90
2019-01-21T21:31:42.374Z,99.90
2019-01-21T21:34:08.601Z,99.90
2019-01-21T21:36:34.806Z,99.90
2019-01-21T21:39:01.113Z,99.90
2019-01-21T21:41:27.414Z,99.90
2019-01-21T21:43:53.722Z,99.90
2019-01-21T21:46:20.030Z,99.90
2019-01-21T21:48:46.241Z,99.90
2019-01-21T21:51:12.834Z,99.90
2019-01-21T21:53:39.046Z,99.90
2019-01-21T21:56:05.247Z,99.90
2019-01-21T21:58:31.766Z,99.90
2019-01-21T22:00:58.163Z,99.90
2019-01-21T22:03:24.490Z,99.90
2019-01-21T22:05:50.788Z,99.90
2019-01-21T22:08:17.303Z,99.90
2019-01-21T22:10:43.498Z,99.90
2019-01-21T22:13:09.824Z,99.90
2019-01-21T22:15:36.137Z,99.90
2019-01-21T22:18:02.563Z,99.90
2019-01-21T22:20:28.854Z,99.90
2019-01-21T22:22:55.071Z,99.90
2019-01-21T22:25:21.369Z,99.90
2019-01-21T22:27:47.570Z,99.90
2019-01-21T22:30:16.901Z,99.90
2019-01-21T22:32:43.299Z,99.90
2019-01-21T22:35:09.727Z,99.90
2019-01-21T22:37:36.050Z,99.90
2019-01-21T22:40:08.564Z,99.90
2019-01-21T22:42:34.768Z,99.90
2019-01-21T22:45:06.105Z,99.90
2019-01-21T22:47:32.403Z,99.90
2019-01-21T22:49:58.718Z,99.90
2019-01-21T22:52:25.326Z,99.90
2019-01-21T22:54:51.550Z,99.90
2019-01-21T22:57:17.846Z,99.90
2019-01-21T22:59:44.071Z,99.90
2019-01-21T23:02:10.479Z,99.90
2019-01-21T23:04:36.794Z,99.90
2019-01-21T23:07:03.108Z,99.90
2019-01-21T23:09:29.618Z,99.90
2019-01-21T23:11:55.839Z,99.90
2019-01-21T23:14:22.164Z,99.90
2019-01-21T23:16:48.474Z,99.90
2019-01-21T23:19:14.790Z,99.90
2019-01-21T23:21:40.986Z,99.90
2019-01-21T23:24:07.311Z,99.90
2019-01-21T23:26:33.505Z,99.90
2019-01-21T23:28:59.844Z,99.90
2019-01-21T23:31:26.171Z,99.90
2019-01-21T23:33:52.582Z,99.90
2019-01-21T23:36:19.290Z,99.90
2019-01-21T23:38:45.575Z,99.90
2019-01-21T23:41:11.795Z,99.90
2019-01-21T23:43:38.002Z,99.90
2019-01-21T23:46:04.339Z,99.90
2019-01-21T23:48:30.638Z,99.90
2019-01-21T23:50:56.951Z,99.90
2019-01-21T23:53:23.156Z,99.90
2019-01-21T23:55:49.375Z,99.90
2019-01-21T23:58:15.987Z,99.90
